createdAt,value
2019-05-25T00:01:49.497Z,9.70
2019-05-25T00:04:18.125Z,9.80
2019-05-25T00:06:46.820Z,9.70
2019-05-25T00:09:15.497Z,9.80
2019-05-25T00:11:44.106Z,9.70
2019-05-25T00:14:12.651Z,9.80
2019-05-25T00:16:41.278Z,9.80
2019-05-25T00:19:09.952Z,9.80
2019-05-25T00:21:38.526Z,9.70
2019-05-25T00:24:12.374Z,9.70
2019-05-25T00:26:37.450Z,9.70
2019-05-25T00:29:06.070Z,9.70
2019-05-25T00:31:34.838Z,9.70
2019-05-25T00:34:03.597Z,9.70
2019-05-25T00:36:32.162Z,9.70
2019-05-25T00:39:00.778Z,9.70
2019-05-25T00:41:29.465Z,9.70
2019-05-25T00:43:58.157Z,9.60
2019-05-25T00:46:26.811Z,9.60
2019-05-25T00:48:55.477Z,9.60
2019-05-25T00:51:24.103Z,9.60
2019-05-25T00:53:52.761Z,9.50
2019-05-25T00:56:21.307Z,9.60
2019-05-25T00:58:50.037Z,9.50
2019-05-25T01:01:18.562Z,9.50
2019-05-25T01:03:47.349Z,9.50
2019-05-25T01:06:15.966Z,9.60
2019-05-25T01:08:44.510Z,9.60
2019-05-25T01:11:13.077Z,9.60
2019-05-25T01:13:41.624Z,9.60
2019-05-25T01:16:10.393Z,9.50
2019-05-25T01:18:39.165Z,9.60
2019-05-25T01:21:07.783Z,9.50
2019-05-25T01:23:36.413Z,9.50
2019-05-25T01:26:05.018Z,9.60
2019-05-25T01:28:33.680Z,9.50
2019-05-25T01:31:02.239Z,9.50
2019-05-25T01:33:31.031Z,9.50
2019-05-25T01:35:59.687Z,9.50
2019-05-25T01:38:28.269Z,9.50
2019-05-25T01:40:56.871Z,9.60
2019-05-25T01:43:26.156Z,9.60
2019-05-25T01:45:54.738Z,9.60
2019-05-25T01:48:23.361Z,9.60
2019-05-25T01:50:51.917Z,9.60
2019-05-25T01:53:20.591Z,9.60
2019-05-25T01:55:49.207Z,9.50
2019-05-25T01:58:17.820Z,9.50
2019-05-25T02:00:46.446Z,9.50
2019-05-25T02:03:15.078Z,9.50
2019-05-25T02:05:43.754Z,9.50
2019-05-25T02:08:12.374Z,9.50
2019-05-25T02:10:41.047Z,9.50
2019-05-25T02:13:09.624Z,9.50
2019-05-25T02:15:38.244Z,9.50
2019-05-25T02:18:06.871Z,9.50
2019-05-25T02:20:35.526Z,9.50
2019-05-25T02:23:04.327Z,9.50
2019-05-25T02:25:32.997Z,9.50
2019-05-25T02:28:01.653Z,9.50
2019-05-25T02:30:30.548Z,9.50
2019-05-25T02:32:59.477Z,9.40
2019-05-25T02:35:28.667Z,9.40
2019-05-25T02:37:57.875Z,9.40
2019-05-25T02:40:27.015Z,9.30
2019-05-25T02:42:55.886Z,9.30
2019-05-25T02:45:25.566Z,9.30
2019-05-25T02:47:54.256Z,9.10
2019-05-25T02:50:22.962Z,9.20
2019-05-25T02:52:51.526Z,9.10
2019-05-25T02:55:33.188Z,9.20
2019-05-25T02:57:50.470Z,9.10
2019-05-25T03:00:22.108Z,9.10
2019-05-25T03:02:50.769Z,9.10
2019-05-25T03:05:19.776Z,9.10
2019-05-25T03:07:49.266Z,9.10
2019-05-25T03:10:18.005Z,9.10
2019-05-25T03:12:46.736Z,9.10
2019-05-25T03:15:17.150Z,9.10
2019-05-25T03:17:45.762Z,9.10
2019-05-25T03:20:15.084Z,9.10
2019-05-25T03:22:43.731Z,9.10
2019-05-25T03:25:12.647Z,9.00
2019-05-25T03:27:41.358Z,9.00
2019-05-25T03:30:10.755Z,9.00
2019-05-25T03:32:39.451Z,9.00
2019-05-25T03:35:08.358Z,9.10
2019-05-25T03:37:37.735Z,9.10
2019-05-25T03:40:08.215Z,9.20
2019-05-25T03:42:37.027Z,9.10
2019-05-25T03:45:06.847Z,9.20
2019-05-25T03:47:35.459Z,9.30
2019-05-25T03:50:04.851Z,9.30
2019-05-25T03:52:33.448Z,9.40
2019-05-25T03:55:02.134Z,9.40
2019-05-25T03:57:30.773Z,9.40
2019-05-25T03:59:59.530Z,9.50
2019-05-25T04:02:28.199Z,9.50
2019-05-25T04:04:56.749Z,9.50
2019-05-25T04:07:25.445Z,9.60
2019-05-25T04:09:54.064Z,9.60
2019-05-25T04:12:22.705Z,9.60
2019-05-25T04:14:52.098Z,9.70
2019-05-25T04:17:20.642Z,9.70
2019-05-25T04:19:49.258Z,9.70
2019-05-25T04:22:17.962Z,9.70
2019-05-25T04:24:46.605Z,9.70
2019-05-25T04:27:15.219Z,9.70
2019-05-25T04:29:43.796Z,9.90
2019-05-25T04:32:12.407Z,10.00
2019-05-25T04:34:40.981Z,9.90
2019-05-25T04:37:09.728Z,10.10
2019-05-25T04:39:38.303Z,10.10
2019-05-25T04:42:07.042Z,10.20
2019-05-25T04:44:35.599Z,10.10
2019-05-25T04:47:04.321Z,10.10
2019-05-25T04:49:32.923Z,10.20
2019-05-25T04:52:01.503Z,10.20
2019-05-25T04:54:30.316Z,10.30
2019-05-25T04:56:58.898Z,10.50
2019-05-25T04:59:27.477Z,10.70
2019-05-25T05:01:56.052Z,10.70
2019-05-25T05:04:24.701Z,10.60
2019-05-25T05:06:53.294Z,10.60
2019-05-25T05:09:21.990Z,10.50
2019-05-25T05:11:50.655Z,10.40
2019-05-25T05:14:19.190Z,10.50
2019-05-25T05:16:47.772Z,10.50
2019-05-25T05:19:16.432Z,10.40
2019-05-25T05:21:45.144Z,10.50
2019-05-25T05:24:13.834Z,10.40
2019-05-25T05:26:55.224Z,10.30
2019-05-25T05:29:12.813Z,10.40
2019-05-25T05:31:41.412Z,10.50
2019-05-25T05:34:10.229Z,10.70
2019-05-25T05:36:39.079Z,10.70
2019-05-25T05:39:09.561Z,10.90
2019-05-25T05:41:40.169Z,11.00
2019-05-25T05:44:08.887Z,11.10
2019-05-25T05:46:41.539Z,11.10
2019-05-25T05:49:10.708Z,11.20
2019-05-25T05:51:40.693Z,11.30
2019-05-25T05:54:09.349Z,11.50
2019-05-25T05:56:37.898Z,11.40
2019-05-25T05:59:06.524Z,11.50
2019-05-25T06:01:35.389Z,11.50
2019-05-25T06:04:04.081Z,11.50
2019-05-25T06:06:32.653Z,11.60
2019-05-25T06:09:01.320Z,11.70
2019-05-25T06:11:29.974Z,11.70
2019-05-25T06:13:59.028Z,11.80
2019-05-25T06:16:27.575Z,11.70
2019-05-25T06:18:56.130Z,11.70
2019-05-25T06:21:24.787Z,11.70
2019-05-25T06:23:53.482Z,11.80
2019-05-25T06:26:22.143Z,11.90
2019-05-25T06:28:50.939Z,11.90
2019-05-25T06:31:19.633Z,12.00
2019-05-25T06:33:48.208Z,12.10
2019-05-25T06:36:16.850Z,12.30
2019-05-25T06:38:45.554Z,12.40
2019-05-25T06:41:14.189Z,12.40
2019-05-25T06:43:42.848Z,12.40
2019-05-25T06:46:11.413Z,12.50
2019-05-25T06:48:40.073Z,12.40
2019-05-25T06:51:08.621Z,12.60
2019-05-25T06:53:37.175Z,12.70
2019-05-25T06:56:05.880Z,12.80
2019-05-25T06:58:34.453Z,12.80
2019-05-25T07:01:03.009Z,12.70
2019-05-25T07:03:32.135Z,12.50
2019-05-25T07:06:00.688Z,12.60
2019-05-25T07:08:29.277Z,12.60
2019-05-25T07:10:57.933Z,12.70
2019-05-25T07:13:28.514Z,12.80
2019-05-25T07:15:56.870Z,13.10
2019-05-25T07:18:25.511Z,13.20
2019-05-25T07:20:54.099Z,13.10
2019-05-25T07:23:22.741Z,13.10
2019-05-25T07:25:51.459Z,13.10
2019-05-25T07:28:20.218Z,13.30
2019-05-25T07:30:48.876Z,13.30
2019-05-25T07:33:19.602Z,13.30
2019-05-25T07:35:48.332Z,13.40
2019-05-25T07:38:16.902Z,13.50
2019-05-25T07:40:45.592Z,13.50
2019-05-25T07:43:14.174Z,13.60
2019-05-25T07:45:43.208Z,13.70
2019-05-25T07:48:11.840Z,13.70
2019-05-25T07:50:40.486Z,13.80
2019-05-25T07:53:09.045Z,13.90
2019-05-25T07:55:37.607Z,14.10
2019-05-25T07:58:16.884Z,13.90
2019-05-25T08:00:36.671Z,13.70
2019-05-25T08:03:05.461Z,13.70
2019-05-25T08:05:34.444Z,13.90
2019-05-25T08:08:03.791Z,14.20
2019-05-25T08:10:32.721Z,14.50
2019-05-25T08:13:03.018Z,14.60
2019-05-25T08:15:31.594Z,14.80
2019-05-25T08:18:00.169Z,15.00
2019-05-25T08:20:28.913Z,15.20
2019-05-25T08:22:57.556Z,15.10
2019-05-25T08:25:26.524Z,15.00
2019-05-25T08:27:55.224Z,15.00
2019-05-25T08:30:23.942Z,14.80
2019-05-25T08:32:54.611Z,14.90
2019-05-25T08:35:27.573Z,14.80
2019-05-25T08:37:56.131Z,14.80
2019-05-25T08:40:24.751Z,14.70
2019-05-25T08:42:53.467Z,14.90
2019-05-25T08:45:25.989Z,15.10
2019-05-25T08:47:56.934Z,15.10
2019-05-25T08:50:37.976Z,15.00
2019-05-25T08:52:58.279Z,15.10
2019-05-25T08:55:26.892Z,15.30
2019-05-25T08:57:55.541Z,15.40
2019-05-25T09:00:25.174Z,15.30
2019-05-25T09:02:53.790Z,15.70
2019-05-25T09:05:22.436Z,15.70
2019-05-25T09:07:51.893Z,15.50
2019-05-25T09:10:21.763Z,15.30
2019-05-25T09:12:50.340Z,15.30
2019-05-25T09:15:19.190Z,15.30
2019-05-25T09:18:12.036Z,15.60
2019-05-25T09:23:40.718Z,16.30
2019-05-25T09:26:14.846Z,16.40
2019-05-25T09:28:43.474Z,16.60
2019-05-25T09:31:22.464Z,16.30
2019-05-25T09:33:51.205Z,16.00
2019-05-25T09:36:26.886Z,16.40
2019-05-25T09:38:57.201Z,16.50
2019-05-25T09:41:28.218Z,16.90
2019-05-25T09:43:56.777Z,16.60
2019-05-25T09:46:25.475Z,16.60
2019-05-25T09:48:54.032Z,16.70
2019-05-25T09:51:22.730Z,16.60
2019-05-25T09:53:54.082Z,16.70
2019-05-25T09:56:22.730Z,16.70
2019-05-25T09:58:51.342Z,16.80
2019-05-25T10:01:19.982Z,16.70
2019-05-25T10:03:48.666Z,17.00
2019-05-25T10:06:17.289Z,17.00
2019-05-25T10:08:45.958Z,17.30
2019-05-25T10:11:14.580Z,16.90
2019-05-25T10:13:45.894Z,17.50
2019-05-25T10:16:14.517Z,17.50
2019-05-25T10:18:43.355Z,17.40
2019-05-25T10:21:14.415Z,17.40
2019-05-25T10:23:42.311Z,17.10
2019-05-25T10:26:10.955Z,17.50
2019-05-25T10:28:39.568Z,18.00
2019-05-25T10:31:08.220Z,17.80
2019-05-25T10:33:36.827Z,17.30
2019-05-25T10:36:05.510Z,17.20
2019-05-25T10:38:34.053Z,17.20
2019-05-25T10:41:03.249Z,17.50
2019-05-25T10:43:31.915Z,18.10
2019-05-25T10:46:00.522Z,18.10
2019-05-25T10:48:29.135Z,17.80
2019-05-25T10:50:57.820Z,17.60
2019-05-25T10:53:26.524Z,17.60
2019-05-25T10:55:55.038Z,17.80
2019-05-25T10:58:23.674Z,18.10
2019-05-25T11:00:52.308Z,18.50
2019-05-25T11:03:20.899Z,18.90
2019-05-25T11:05:49.533Z,19.60
2019-05-25T11:08:18.239Z,19.50
2019-05-25T11:10:46.882Z,18.80
2019-05-25T11:13:15.584Z,18.90
2019-05-25T11:15:44.224Z,19.40
2019-05-25T11:18:12.955Z,19.70
2019-05-25T11:20:42.182Z,20.70
2019-05-25T11:23:10.832Z,21.50
2019-05-25T11:25:39.622Z,22.50
2019-05-25T11:28:11.306Z,23.90
2019-05-25T11:30:40.011Z,23.00
2019-05-25T11:33:08.653Z,20.60
2019-05-25T11:35:37.372Z,20.80
2019-05-25T11:38:06.130Z,21.60
2019-05-25T11:40:34.679Z,22.70
2019-05-25T11:43:04.349Z,23.20
2019-05-25T11:45:33.154Z,23.70
2019-05-25T11:48:01.812Z,23.40
2019-05-25T11:50:30.566Z,23.00
2019-05-25T11:52:59.114Z,21.80
2019-05-25T11:55:27.754Z,20.50
2019-05-25T11:57:56.563Z,20.20
2019-05-25T12:00:26.054Z,20.30
2019-05-25T12:02:54.834Z,21.80
2019-05-25T12:05:23.411Z,23.30
2019-05-25T12:07:52.153Z,23.90
2019-05-25T12:10:20.781Z,23.90
2019-05-25T12:12:49.405Z,21.70
2019-05-25T12:15:18.233Z,21.50
2019-05-25T12:17:46.785Z,20.20
2019-05-25T12:20:16.413Z,19.40
2019-05-25T12:22:45.175Z,18.90
2019-05-25T12:25:13.992Z,18.10
2019-05-25T12:27:42.732Z,17.50
2019-05-25T12:30:12.190Z,17.00
2019-05-25T12:32:40.934Z,16.50
2019-05-25T12:35:09.990Z,16.50
2019-05-25T12:37:38.636Z,16.80
2019-05-25T12:40:07.755Z,17.00
2019-05-25T12:42:36.516Z,17.20
2019-05-25T12:45:07.175Z,17.70
2019-05-25T12:47:35.884Z,18.70
2019-05-25T12:50:06.421Z,19.80
2019-05-25T12:52:35.036Z,21.00
2019-05-25T12:55:04.496Z,21.70
2019-05-25T12:57:33.113Z,21.90
2019-05-25T13:00:14.775Z,21.20
2019-05-25T13:02:32.102Z,20.60
2019-05-25T13:05:00.701Z,20.20
2019-05-25T13:07:29.278Z,19.90
2019-05-25T13:09:57.993Z,19.70
2019-05-25T13:12:26.687Z,19.40
2019-05-25T13:14:55.294Z,19.00
2019-05-25T13:19:50.966Z,18.80
2019-05-25T13:22:19.678Z,18.20
2019-05-25T13:24:48.198Z,18.10
2019-05-25T13:27:16.839Z,17.80
2019-05-25T13:29:45.450Z,17.60
2019-05-25T13:32:14.066Z,19.00
2019-05-25T13:34:44.594Z,20.80
2019-05-25T13:37:13.669Z,21.20
2019-05-25T13:39:42.324Z,20.90
2019-05-25T13:42:10.875Z,20.80
2019-05-25T13:44:39.595Z,21.00
2019-05-25T13:47:08.141Z,22.00
2019-05-25T13:49:36.731Z,21.70
2019-05-25T13:52:05.341Z,21.60
2019-05-25T13:54:34.071Z,21.90
2019-05-25T13:57:02.769Z,22.50
2019-05-25T13:59:31.412Z,22.60
2019-05-25T14:02:00.050Z,22.40
2019-05-25T14:04:28.603Z,21.70
2019-05-25T14:06:57.202Z,21.40
2019-05-25T14:09:26.231Z,20.80
2019-05-25T14:11:54.926Z,20.70
2019-05-25T14:14:24.579Z,20.00
2019-05-25T14:16:53.370Z,19.50
2019-05-25T14:19:21.902Z,19.10
2019-05-25T14:21:50.538Z,19.10
2019-05-25T14:24:19.234Z,19.10
2019-05-25T14:26:47.812Z,18.80
2019-05-25T14:29:16.478Z,18.50
2019-05-25T14:31:46.270Z,18.10
2019-05-25T14:34:15.103Z,18.10
2019-05-25T14:36:43.658Z,18.10
2019-05-25T14:39:12.301Z,18.10
2019-05-25T14:41:40.803Z,17.80
2019-05-25T14:44:09.535Z,17.80
2019-05-25T14:46:38.113Z,17.90
2019-05-25T14:49:07.165Z,18.00
2019-05-25T14:51:35.809Z,18.40
2019-05-25T14:54:04.601Z,18.50
2019-05-25T14:56:33.314Z,18.40
2019-05-25T14:59:01.998Z,18.50
2019-05-25T15:01:31.150Z,18.70
2019-05-25T15:03:59.722Z,19.10
2019-05-25T15:06:28.362Z,19.00
2019-05-25T15:08:57.086Z,19.10
2019-05-25T15:11:26.328Z,19.20
2019-05-25T15:13:55.014Z,19.30
2019-05-25T15:16:23.600Z,20.00
2019-05-25T15:18:52.242Z,20.10
2019-05-25T15:21:20.962Z,19.90
2019-05-25T15:23:49.534Z,19.60
2019-05-25T15:26:18.110Z,20.10
2019-05-25T15:28:46.722Z,19.80
2019-05-25T15:31:15.297Z,19.30
2019-05-25T15:33:43.994Z,19.10
2019-05-25T15:36:12.566Z,19.30
2019-05-25T15:38:41.335Z,19.40
2019-05-25T15:41:10.127Z,20.60
2019-05-25T15:43:38.764Z,20.70
2019-05-25T15:46:07.746Z,21.30
2019-05-25T15:48:36.433Z,21.00
2019-05-25T15:51:05.366Z,20.70
2019-05-25T15:53:34.014Z,20.90
2019-05-25T15:56:02.745Z,21.30
2019-05-25T15:58:31.439Z,21.50
2019-05-25T16:01:00.134Z,22.30
2019-05-25T16:03:28.757Z,22.20
2019-05-25T16:05:57.470Z,22.20
2019-05-25T16:08:26.087Z,22.30
2019-05-25T16:10:56.352Z,22.50
2019-05-25T16:13:25.373Z,22.50
2019-05-25T16:15:53.904Z,22.30
2019-05-25T16:18:22.475Z,22.10
2019-05-25T16:20:51.066Z,20.90
2019-05-25T16:23:19.687Z,20.90
2019-05-25T16:25:48.514Z,20.90
2019-05-25T16:28:17.305Z,21.40
2019-05-25T16:30:46.132Z,21.50
2019-05-25T16:33:15.065Z,21.50
2019-05-25T16:35:43.889Z,21.90
2019-05-25T16:38:12.933Z,20.80
2019-05-25T16:40:41.819Z,20.60
2019-05-25T16:43:10.421Z,20.90
2019-05-25T16:45:39.039Z,21.30
2019-05-25T16:48:07.666Z,21.10
2019-05-25T16:50:36.408Z,20.00
2019-05-25T16:53:05.333Z,19.20
2019-05-25T16:55:34.026Z,18.40
2019-05-25T16:58:02.741Z,18.00
2019-05-25T17:00:34.564Z,17.80
2019-05-25T17:03:03.137Z,17.80
2019-05-25T17:05:31.858Z,17.50
2019-05-25T17:08:00.411Z,17.80
2019-05-25T17:10:29.094Z,17.60
2019-05-25T17:12:57.826Z,17.50
2019-05-25T17:15:27.109Z,17.40
2019-05-25T17:17:55.770Z,17.30
2019-05-25T17:20:25.931Z,17.10
2019-05-25T17:22:54.695Z,16.90
2019-05-25T17:25:23.323Z,16.70
2019-05-25T17:27:51.913Z,16.60
2019-05-25T17:30:26.081Z,16.50
2019-05-25T17:32:54.746Z,16.50
2019-05-25T17:35:23.358Z,16.30
2019-05-25T17:37:51.997Z,16.20
2019-05-25T17:40:20.716Z,16.00
2019-05-25T17:42:50.205Z,15.80
2019-05-25T17:45:18.961Z,15.80
2019-05-25T17:47:47.588Z,15.80
2019-05-25T17:50:16.346Z,16.00
2019-05-25T17:52:45.010Z,16.20
2019-05-25T17:55:14.024Z,16.20
2019-05-25T17:57:42.654Z,16.10
2019-05-25T18:00:12.063Z,15.90
2019-05-25T18:02:40.738Z,15.80
2019-05-25T18:05:10.535Z,15.30
2019-05-25T18:07:39.175Z,15.00
2019-05-25T18:10:08.189Z,14.90
2019-05-25T18:12:36.886Z,14.70
2019-05-25T18:15:08.257Z,14.60
2019-05-25T18:17:37.026Z,14.50
2019-05-25T18:20:08.266Z,14.50
2019-05-25T18:22:36.830Z,14.40
2019-05-25T18:25:07.019Z,14.20
2019-05-25T18:27:35.595Z,14.00
2019-05-25T18:30:06.950Z,13.80
2019-05-25T18:32:36.250Z,13.70
2019-05-25T18:35:06.872Z,13.60
2019-05-25T18:37:35.642Z,13.50
2019-05-25T18:40:06.331Z,13.60
2019-05-25T18:42:35.011Z,13.50
2019-05-25T18:45:04.422Z,13.50
2019-05-25T18:47:33.067Z,13.50
2019-05-25T18:50:01.732Z,13.50
2019-05-25T18:52:30.448Z,13.40
2019-05-25T18:54:59.187Z,13.30
2019-05-25T18:57:27.877Z,13.30
2019-05-25T18:59:57.127Z,13.20
2019-05-25T19:02:25.716Z,13.20
2019-05-25T19:04:59.605Z,13.20
2019-05-25T19:07:26.431Z,13.20
2019-05-25T19:09:54.980Z,13.20
2019-05-25T19:12:23.663Z,13.20
2019-05-25T19:14:52.311Z,13.10
2019-05-25T19:17:20.971Z,13.00
2019-05-25T19:19:49.534Z,13.00
2019-05-25T19:22:18.431Z,12.90
2019-05-25T19:24:48.025Z,12.80
2019-05-25T19:27:16.656Z,12.80
2019-05-25T19:29:45.258Z,12.80
2019-05-25T19:32:13.824Z,12.70
2019-05-25T19:34:58.614Z,12.70
2019-05-25T19:37:12.931Z,12.70
2019-05-25T19:39:41.590Z,12.60
2019-05-25T19:42:10.323Z,12.50
2019-05-25T19:44:39.359Z,12.60
2019-05-25T19:47:07.894Z,12.50
2019-05-25T19:49:36.563Z,12.50
2019-05-25T19:52:05.743Z,12.50
2019-05-25T19:54:34.302Z,12.50
2019-05-25T19:57:03.175Z,12.50
2019-05-25T19:59:31.747Z,12.30
2019-05-25T20:02:00.524Z,12.40
2019-05-25T20:04:29.069Z,12.30
2019-05-25T20:06:57.549Z,12.30
2019-05-25T20:09:26.193Z,12.20
2019-05-25T20:11:54.769Z,12.10
2019-05-25T20:14:23.387Z,12.00
2019-05-25T20:16:52.274Z,12.00
2019-05-25T20:19:21.270Z,12.00
2019-05-25T20:21:49.974Z,12.00
2019-05-25T20:24:19.237Z,12.10
2019-05-25T20:26:47.797Z,12.00
2019-05-25T20:29:16.534Z,12.00
2019-05-25T20:31:45.222Z,11.80
2019-05-25T20:34:13.944Z,11.70
2019-05-25T20:36:42.494Z,11.70
2019-05-25T20:39:11.151Z,11.70
2019-05-25T20:41:39.802Z,11.70
2019-05-25T20:44:11.586Z,11.60
2019-05-25T20:46:40.161Z,11.50
2019-05-25T20:49:08.880Z,11.40
2019-05-25T20:51:37.538Z,11.40
2019-05-25T20:54:06.181Z,11.30
2019-05-25T20:56:34.755Z,11.30
2019-05-25T20:59:03.480Z,11.20
2019-05-25T21:01:32.121Z,11.10
2019-05-25T21:04:00.770Z,11.10
2019-05-25T21:06:29.461Z,11.00
2019-05-25T21:08:58.310Z,11.00
2019-05-25T21:11:26.901Z,11.00
2019-05-25T21:13:55.547Z,11.00
2019-05-25T21:16:24.194Z,10.90
2019-05-25T21:18:52.914Z,10.90
2019-05-25T21:21:21.490Z,11.00
2019-05-25T21:23:50.236Z,10.90
2019-05-25T21:26:18.854Z,10.90
2019-05-25T21:28:47.514Z,10.90
2019-05-25T21:31:16.091Z,10.90
2019-05-25T21:33:44.670Z,10.90
2019-05-25T21:36:13.186Z,10.90
2019-05-25T21:38:41.916Z,10.80
2019-05-25T21:41:10.490Z,10.80
2019-05-25T21:43:39.128Z,10.70
2019-05-25T21:46:07.807Z,10.70
2019-05-25T21:48:37.278Z,10.70
2019-05-25T21:51:05.961Z,10.80
2019-05-25T21:53:34.557Z,10.80
2019-05-25T21:56:03.327Z,10.80
2019-05-25T21:58:31.993Z,10.70
2019-05-25T22:01:00.678Z,10.70
2019-05-25T22:03:29.365Z,10.80
2019-05-25T22:05:58.014Z,10.70
2019-05-25T22:08:26.617Z,10.70
2019-05-25T22:10:55.319Z,10.70
2019-05-25T22:13:28.659Z,10.70
2019-05-25T22:15:54.210Z,10.70
2019-05-25T22:18:22.838Z,10.70
2019-05-25T22:20:51.401Z,10.80
2019-05-25T22:23:19.971Z,10.70
2019-05-25T22:25:48.530Z,10.70
2019-05-25T22:28:17.172Z,10.70
2019-05-25T22:30:45.721Z,10.70
2019-05-25T22:33:14.369Z,10.70
2019-05-25T22:35:42.959Z,10.70
2019-05-25T22:38:11.565Z,10.60
2019-05-25T22:40:40.105Z,10.60
2019-05-25T22:43:09.255Z,10.60
2019-05-25T22:45:39.456Z,10.50
2019-05-25T22:48:08.061Z,10.50
2019-05-25T22:50:36.755Z,10.50
2019-05-25T22:53:06.554Z,10.40
2019-05-25T22:55:35.941Z,10.40
2019-05-25T22:58:04.642Z,10.40
2019-05-25T23:00:33.274Z,10.20
2019-05-25T23:03:01.850Z,10.20
2019-05-25T23:05:30.436Z,10.20
2019-05-25T23:07:59.202Z,10.30
2019-05-25T23:10:27.860Z,10.20
2019-05-25T23:12:56.479Z,10.20
2019-05-25T23:15:25.170Z,10.20
2019-05-25T23:17:53.742Z,10.30
2019-05-25T23:20:22.335Z,10.30
2019-05-25T23:22:51.162Z,10.20
2019-05-25T23:25:19.791Z,10.20
2019-05-25T23:27:48.502Z,10.20
2019-05-25T23:30:18.207Z,10.20
2019-05-25T23:32:46.957Z,10.10
2019-05-25T23:35:15.677Z,10.10
2019-05-25T23:37:44.324Z,10.10
2019-05-25T23:40:13.399Z,10.20
2019-05-25T23:42:41.967Z,10.10
2019-05-25T23:45:12.363Z,10.00
2019-05-25T23:47:41.099Z,10.10
2019-05-25T23:50:10.226Z,10.00
2019-05-25T23:52:38.967Z,10.00
2019-05-25T23:55:08.102Z,10.00
2019-05-25T23:57:36.574Z,9.90
